sensor_id;sensor_type;location;lat;lon;timestamp;P1;durP1;ratioP1;P2;durP2;ratioP2
75914;SDS011;64593;51.050;13.780;2023-04-20T06:03:56;5.90;;;3.50;;
75914;SDS011;64593;51.050;13.780;2023-04-20T06:09:00;22.40;;;10.85;;
75914;SDS011;64593;51.050;13.780;2023-04-20T06:14:01;24.77;;;12.23;;
75914;SDS011;64593;51.050;13.780;2023-04-20T06:19:05;18.13;;;9.00;;
75914;SDS011;64593;51.050;13.780;2023-04-20T06:24:09;20.85;;;10.95;;
75914;SDS011;64593;51.050;13.780;2023-04-20T06:29:11;17.08;;;8.90;;
75914;SDS011;64593;51.050;13.780;2023-04-20T06:34:16;10.45;;;4.70;;
75914;SDS011;64593;51.050;13.780;2023-04-20T06:39:18;21.42;;;11.13;;
75914;SDS011;64593;51.050;13.780;2023-04-20T06:44:22;20.75;;;10.70;;
75914;SDS011;64593;51.050;13.780;2023-04-20T06:49:24;19.23;;;10.55;;
75914;SDS011;64593;51.050;13.780;2023-04-20T06:54:25;20.48;;;10.88;;
75914;SDS011;64593;51.050;13.780;2023-04-20T06:59:27;17.77;;;10.40;;
75914;SDS011;64593;51.050;13.780;2023-04-20T07:04:29;20.15;;;9.85;;
75914;SDS011;64593;51.050;13.780;2023-04-20T07:09:33;19.92;;;10.60;;
75914;SDS011;64593;51.050;13.780;2023-04-20T07:14:36;22.70;;;11.07;;
75914;SDS011;64593;51.050;13.780;2023-04-20T07:19:44;21.55;;;10.98;;
75914;SDS011;64593;51.050;13.780;2023-04-20T07:25:26;20.90;;;10.40;;
75914;SDS011;64593;51.050;13.780;2023-04-20T07:30:28;20.20;;;9.27;;
75914;SDS011;64593;51.050;13.780;2023-04-20T07:35:33;17.58;;;8.82;;
75914;SDS011;64593;51.050;13.780;2023-04-20T07:40:35;25.83;;;9.95;;
75914;SDS011;64593;51.050;13.780;2023-04-20T07:45:39;16.13;;;8.23;;
75914;SDS011;64593;51.050;13.780;2023-04-20T07:50:42;19.15;;;9.82;;
75914;SDS011;64593;51.050;13.780;2023-04-20T07:55:45;17.00;;;9.57;;
75914;SDS011;64593;51.050;13.780;2023-04-20T08:00:48;17.42;;;9.52;;
75914;SDS011;64593;51.050;13.780;2023-04-20T08:05:50;20.60;;;11.23;;
75914;SDS011;64593;51.050;13.780;2023-04-20T08:10:55;19.90;;;10.57;;
75914;SDS011;64593;51.050;13.780;2023-04-20T08:15:58;18.90;;;11.32;;
75914;SDS011;64593;51.050;13.780;2023-04-20T08:21:00;19.35;;;10.23;;
75914;SDS011;64593;51.050;13.780;2023-04-20T08:26:06;20.85;;;10.38;;
75914;SDS011;64593;51.050;13.780;2023-04-20T08:31:11;19.90;;;11.07;;
75914;SDS011;64593;51.050;13.780;2023-04-20T08:36:14;21.02;;;12.15;;
75914;SDS011;64593;51.050;13.780;2023-04-20T08:41:16;26.95;;;13.98;;
75914;SDS011;64593;51.050;13.780;2023-04-20T08:46:21;26.20;;;15.23;;
75914;SDS011;64593;51.050;13.780;2023-04-20T08:51:27;23.33;;;13.57;;
75914;SDS011;64593;51.050;13.780;2023-04-20T08:56:35;22.13;;;11.20;;
75914;SDS011;64593;51.050;13.780;2023-04-20T09:01:43;21.85;;;12.05;;
75914;SDS011;64593;51.050;13.780;2023-04-20T09:06:45;23.48;;;12.50;;
75914;SDS011;64593;51.050;13.780;2023-04-20T09:17:29;22.95;;;12.57;;
75914;SDS011;64593;51.050;13.780;2023-04-20T09:22:35;21.40;;;12.10;;
75914;SDS011;64593;51.050;13.780;2023-04-20T09:27:38;25.50;;;13.48;;
75914;SDS011;64593;51.050;13.780;2023-04-20T09:32:40;22.35;;;12.43;;
75914;SDS011;64593;51.050;13.780;2023-04-20T09:37:48;24.17;;;13.95;;
75914;SDS011;64593;51.050;13.780;2023-04-20T09:42:53;32.17;;;15.48;;
75914;SDS011;64593;51.050;13.780;2023-04-20T09:47:57;24.45;;;13.95;;
75914;SDS011;64593;51.050;13.780;2023-04-20T09:53:24;27.33;;;14.02;;
75914;SDS011;64593;51.050;13.780;2023-04-20T09:58:26;22.35;;;12.13;;
75914;SDS011;64593;51.050;13.780;2023-04-20T10:03:33;16.20;;;9.45;;
75914;SDS011;64593;51.050;13.780;2023-04-20T10:09:01;12.25;;;6.53;;
75914;SDS011;64593;51.050;13.780;2023-04-20T10:19:38;27.60;;;14.40;;
75914;SDS011;64593;51.050;13.780;2023-04-20T10:24:41;25.48;;;13.63;;
75914;SDS011;64593;51.050;13.780;2023-04-20T10:29:42;26.20;;;15.45;;
75914;SDS011;64593;51.050;13.780;2023-04-20T10:35:09;22.20;;;13.20;;
75914;SDS011;64593;51.050;13.780;2023-04-20T10:40:36;17.58;;;8.68;;
75914;SDS011;64593;51.050;13.780;2023-04-20T10:45:38;25.23;;;13.73;;
75914;SDS011;64593;51.050;13.780;2023-04-20T10:50:41;23.23;;;13.32;;
75914;SDS011;64593;51.050;13.780;2023-04-20T10:56:08;30.65;;;19.42;;
75914;SDS011;64593;51.050;13.780;2023-04-20T11:01:36;16.33;;;9.38;;
75914;SDS011;64593;51.050;13.780;2023-04-20T11:06:39;25.63;;;13.80;;
75914;SDS011;64593;51.050;13.780;2023-04-20T11:12:08;28.50;;;15.65;;
75914;SDS011;64593;51.050;13.780;2023-04-20T11:17:37;27.15;;;16.58;;
75914;SDS011;64593;51.050;13.780;2023-04-20T11:22:40;12.93;;;6.15;;
75914;SDS011;64593;51.050;13.780;2023-04-20T11:27:42;23.08;;;12.73;;
75914;SDS011;64593;51.050;13.780;2023-04-20T11:33:09;24.92;;;14.77;;
75914;SDS011;64593;51.050;13.780;2023-04-20T11:38:11;23.02;;;13.88;;
75914;SDS011;64593;51.050;13.780;2023-04-20T11:43:13;22.67;;;13.27;;
75914;SDS011;64593;51.050;13.780;2023-04-20T11:48:15;28.02;;;16.83;;
75914;SDS011;64593;51.050;13.780;2023-04-20T11:53:23;25.27;;;15.38;;
75914;SDS011;64593;51.050;13.780;2023-04-20T11:58:25;28.70;;;15.50;;
75914;SDS011;64593;51.050;13.780;2023-04-20T12:03:33;26.13;;;16.25;;
75914;SDS011;64593;51.050;13.780;2023-04-20T12:08:35;26.67;;;16.02;;
75914;SDS011;64593;51.050;13.780;2023-04-20T12:14:02;30.90;;;16.52;;
75914;SDS011;64593;51.050;13.780;2023-04-20T12:19:31;29.73;;;17.73;;
75914;SDS011;64593;51.050;13.780;2023-04-20T12:24:38;26.73;;;15.85;;
75914;SDS011;64593;51.050;13.780;2023-04-20T12:30:05;25.33;;;15.70;;
75914;SDS011;64593;51.050;13.780;2023-04-20T12:35:11;23.00;;;12.73;;
75914;SDS011;64593;51.050;13.780;2023-04-20T12:40:13;28.08;;;16.40;;
75914;SDS011;64593;51.050;13.780;2023-04-20T12:45:39;19.95;;;11.40;;
75914;SDS011;64593;51.050;13.780;2023-04-20T12:51:06;25.13;;;12.98;;
75914;SDS011;64593;51.050;13.780;2023-04-20T12:56:08;24.25;;;13.15;;
75914;SDS011;64593;51.050;13.780;2023-04-20T13:01:11;23.13;;;13.52;;
75914;SDS011;64593;51.050;13.780;2023-04-20T13:06:13;23.15;;;13.65;;
75914;SDS011;64593;51.050;13.780;2023-04-20T13:11:15;21.45;;;11.82;;
75914;SDS011;64593;51.050;13.780;2023-04-20T13:16:43;19.65;;;12.52;;
75914;SDS011;64593;51.050;13.780;2023-04-20T13:22:10;18.13;;;10.85;;
75914;SDS011;64593;51.050;13.780;2023-04-20T13:27:16;23.55;;;12.80;;
75914;SDS011;64593;51.050;13.780;2023-04-20T13:32:42;21.55;;;12.88;;
75914;SDS011;64593;51.050;13.780;2023-04-20T13:37:44;20.85;;;12.10;;
75914;SDS011;64593;51.050;13.780;2023-04-20T13:43:13;25.65;;;12.95;;
75914;SDS011;64593;51.050;13.780;2023-04-20T13:48:40;24.88;;;12.93;;
75914;SDS011;64593;51.050;13.780;2023-04-20T13:53:42;19.77;;;12.25;;
75914;SDS011;64593;51.050;13.780;2023-04-20T13:59:09;18.85;;;12.20;;
75914;SDS011;64593;51.050;13.780;2023-04-20T14:04:12;19.55;;;12.00;;
75914;SDS011;64593;51.050;13.780;2023-04-20T14:09:42;22.33;;;12.38;;
75914;SDS011;64593;51.050;13.780;2023-04-20T14:14:47;20.52;;;11.90;;
75914;SDS011;64593;51.050;13.780;2023-04-20T14:19:48;17.92;;;10.50;;
75914;SDS011;64593;51.050;13.780;2023-04-20T14:25:15;19.40;;;11.52;;
75914;SDS011;64593;51.050;13.780;2023-04-20T14:30:17;18.13;;;10.73;;
75914;SDS011;64593;51.050;13.780;2023-04-20T14:35:19;20.80;;;11.20;;
75914;SDS011;64593;51.050;13.780;2023-04-20T14:40:46;19.15;;;10.93;;
75914;SDS011;64593;51.050;13.780;2023-04-20T14:46:13;21.30;;;11.65;;
75914;SDS011;64593;51.050;13.780;2023-04-20T14:51:43;16.90;;;10.70;;
75914;SDS011;64593;51.050;13.780;2023-04-20T14:56:45;20.73;;;11.05;;
75914;SDS011;64593;51.050;13.780;2023-04-20T15:02:12;18.08;;;11.10;;
75914;SDS011;64593;51.050;13.780;2023-04-20T15:07:14;20.27;;;10.73;;
75914;SDS011;64593;51.050;13.780;2023-04-20T15:12:16;19.15;;;11.82;;
75914;SDS011;64593;51.050;13.780;2023-04-20T15:17:18;20.65;;;11.68;;
75914;SDS011;64593;51.050;13.780;2023-04-20T15:22:44;25.52;;;13.10;;
75914;SDS011;64593;51.050;13.780;2023-04-20T15:27:46;19.35;;;11.07;;
75914;SDS011;64593;51.050;13.780;2023-04-20T15:33:13;18.95;;;11.10;;
75914;SDS011;64593;51.050;13.780;2023-04-20T15:38:15;21.85;;;11.07;;
75914;SDS011;64593;51.050;13.780;2023-04-20T15:43:42;22.02;;;11.38;;
75914;SDS011;64593;51.050;13.780;2023-04-20T15:48:44;21.38;;;11.75;;
75914;SDS011;64593;51.050;13.780;2023-04-20T15:53:45;21.52;;;10.65;;
75914;SDS011;64593;51.050;13.780;2023-04-20T15:58:51;15.98;;;8.30;;
75914;SDS011;64593;51.050;13.780;2023-04-20T16:03:52;13.32;;;7.65;;
75914;SDS011;64593;51.050;13.780;2023-04-20T16:08:56;13.20;;;6.55;;
75914;SDS011;64593;51.050;13.780;2023-04-20T16:13:58;14.80;;;7.28;;
75914;SDS011;64593;51.050;13.780;2023-04-20T16:19:25;12.60;;;6.53;;
75914;SDS011;64593;51.050;13.780;2023-04-20T16:24:52;12.73;;;7.15;;
75914;SDS011;64593;51.050;13.780;2023-04-20T16:29:54;11.45;;;6.45;;
75914;SDS011;64593;51.050;13.780;2023-04-20T16:35:21;11.63;;;6.95;;
75914;SDS011;64593;51.050;13.780;2023-04-20T16:40:23;10.02;;;5.53;;
75914;SDS011;64593;51.050;13.780;2023-04-20T16:45:53;15.50;;;6.82;;
75914;SDS011;64593;51.050;13.780;2023-04-20T16:50:59;11.82;;;6.53;;
75914;SDS011;64593;51.050;13.780;2023-04-20T16:56:01;14.13;;;7.13;;
75914;SDS011;64593;51.050;13.780;2023-04-20T17:01:03;12.55;;;6.93;;
75914;SDS011;64593;51.050;13.780;2023-04-20T17:06:06;14.13;;;6.97;;
75914;SDS011;64593;51.050;13.780;2023-04-20T17:11:35;12.32;;;6.38;;
75914;SDS011;64593;51.050;13.780;2023-04-20T17:16:41;14.05;;;7.47;;
75914;SDS011;64593;51.050;13.780;2023-04-20T17:21:43;17.08;;;9.77;;
75914;SDS011;64593;51.050;13.780;2023-04-20T17:26:46;16.20;;;8.55;;
75914;SDS011;64593;51.050;13.780;2023-04-20T17:32:13;20.83;;;10.95;;
75914;SDS011;64593;51.050;13.780;2023-04-20T17:37:18;21.60;;;11.20;;
75914;SDS011;64593;51.050;13.780;2023-04-20T17:42:20;21.13;;;12.48;;
75914;SDS011;64593;51.050;13.780;2023-04-20T17:47:22;22.30;;;13.00;;
75914;SDS011;64593;51.050;13.780;2023-04-20T17:52:25;23.17;;;13.57;;
75914;SDS011;64593;51.050;13.780;2023-04-20T17:57:27;24.60;;;13.80;;
75914;SDS011;64593;51.050;13.780;2023-04-20T18:02:29;25.88;;;14.85;;
75914;SDS011;64593;51.050;13.780;2023-04-20T18:07:31;29.23;;;15.63;;
75914;SDS011;64593;51.050;13.780;2023-04-20T18:12:33;25.63;;;14.07;;
75914;SDS011;64593;51.050;13.780;2023-04-20T18:17:35;24.15;;;15.07;;
75914;SDS011;64593;51.050;13.780;2023-04-20T18:22:37;25.45;;;14.30;;
75914;SDS011;64593;51.050;13.780;2023-04-20T18:28:04;25.52;;;15.02;;
75914;SDS011;64593;51.050;13.780;2023-04-20T18:33:06;27.13;;;15.00;;
75914;SDS011;64593;51.050;13.780;2023-04-20T18:38:07;26.30;;;15.65;;
75914;SDS011;64593;51.050;13.780;2023-04-20T18:43:09;26.02;;;14.43;;
75914;SDS011;64593;51.050;13.780;2023-04-20T18:48:11;24.75;;;13.15;;
75914;SDS011;64593;51.050;13.780;2023-04-20T18:53:21;23.00;;;12.57;;
75914;SDS011;64593;51.050;13.780;2023-04-20T18:58:47;24.92;;;12.45;;
75914;SDS011;64593;51.050;13.780;2023-04-20T19:03:48;18.90;;;10.95;;
75914;SDS011;64593;51.050;13.780;2023-04-20T19:09:15;22.20;;;12.27;;
75914;SDS011;64593;51.050;13.780;2023-04-20T19:14:17;26.80;;;11.90;;
75914;SDS011;64593;51.050;13.780;2023-04-20T19:19:19;26.73;;;14.25;;
75914;SDS011;64593;51.050;13.780;2023-04-20T19:24:21;24.35;;;12.90;;
75914;SDS011;64593;51.050;13.780;2023-04-20T19:29:47;23.58;;;13.80;;
75914;SDS011;64593;51.050;13.780;2023-04-20T19:35:16;24.83;;;13.95;;
75914;SDS011;64593;51.050;13.780;2023-04-20T19:40:18;22.08;;;12.98;;
75914;SDS011;64593;51.050;13.780;2023-04-20T19:45:22;20.90;;;11.88;;
75914;SDS011;64593;51.050;13.780;2023-04-20T19:50:24;20.77;;;11.90;;
75914;SDS011;64593;51.050;13.780;2023-04-20T19:55:25;18.15;;;7.72;;
75914;SDS011;64593;51.050;13.780;2023-04-20T20:00:27;21.35;;;10.63;;
75914;SDS011;64593;51.050;13.780;2023-04-20T20:05:54;16.92;;;8.57;;
75914;SDS011;64593;51.050;13.780;2023-04-20T20:11:21;19.17;;;11.88;;
75914;SDS011;64593;51.050;13.780;2023-04-20T20:16:25;21.10;;;10.05;;
75914;SDS011;64593;51.050;13.780;2023-04-20T20:21:54;22.75;;;10.45;;
75914;SDS011;64593;51.050;13.780;2023-04-20T20:26:57;23.85;;;12.50;;
75914;SDS011;64593;51.050;13.780;2023-04-20T20:32:24;23.23;;;12.02;;
75914;SDS011;64593;51.050;13.780;2023-04-20T20:37:26;22.83;;;11.00;;
75914;SDS011;64593;51.050;13.780;2023-04-20T20:42:53;21.10;;;10.32;;
75914;SDS011;64593;51.050;13.780;2023-04-20T20:48:20;22.67;;;11.27;;
75914;SDS011;64593;51.050;13.780;2023-04-20T20:53:47;20.02;;;11.55;;
75914;SDS011;64593;51.050;13.780;2023-04-20T20:58:49;28.65;;;13.07;;
75914;SDS011;64593;51.050;13.780;2023-04-20T21:03:51;22.83;;;12.75;;
75914;SDS011;64593;51.050;13.780;2023-04-20T21:08:52;25.30;;;13.02;;
75914;SDS011;64593;51.050;13.780;2023-04-20T21:14:20;23.23;;;12.20;;
75914;SDS011;64593;51.050;13.780;2023-04-20T21:19:47;20.02;;;11.70;;
75914;SDS011;64593;51.050;13.780;2023-04-20T21:24:49;22.15;;;12.68;;
75914;SDS011;64593;51.050;13.780;2023-04-20T21:29:53;29.27;;;14.85;;
75914;SDS011;64593;51.050;13.780;2023-04-20T21:34:56;28.10;;;14.07;;
75914;SDS011;64593;51.050;13.780;2023-04-20T21:39:58;27.55;;;14.15;;
75914;SDS011;64593;51.050;13.780;2023-04-20T21:45:00;25.50;;;13.52;;
75914;SDS011;64593;51.050;13.780;2023-04-20T21:50:02;26.83;;;15.98;;
75914;SDS011;64593;51.050;13.780;2023-04-20T21:55:30;28.80;;;15.38;;
